createdAt,value
2018-12-08T00:00:50.274Z,17.41
2018-12-08T00:01:50.282Z,17.35
2018-12-08T00:02:50.317Z,17.19
2018-12-08T00:03:50.308Z,17.24
2018-12-08T00:04:50.463Z,17.14
2018-12-08T00:05:50.344Z,17.12
2018-12-08T00:06:50.402Z,17.16
2018-12-08T00:07:50.364Z,17.09
2018-12-08T00:08:50.369Z,17.13
2018-12-08T00:09:50.488Z,17.10
2018-12-08T00:10:50.413Z,17.16
2018-12-08T00:11:50.402Z,17.14
2018-12-08T00:12:50.414Z,17.14
2018-12-08T00:13:50.426Z,17.24
2018-12-08T00:14:50.674Z,17.10
2018-12-08T00:15:50.453Z,17.16
2018-12-08T00:16:50.481Z,17.14
2018-12-08T00:17:50.494Z,17.17
2018-12-08T00:18:50.626Z,17.10
2018-12-08T00:19:50.611Z,17.10
2018-12-08T00:20:50.545Z,17.10
2018-12-08T00:21:50.591Z,17.02
2018-12-08T00:22:50.564Z,17.05
2018-12-08T00:23:50.631Z,17.01
2018-12-08T00:24:50.801Z,17.10
2018-12-08T00:25:50.594Z,17.02
2018-12-08T00:26:50.599Z,16.99
2018-12-08T00:27:50.623Z,17.07
2018-12-08T00:28:50.625Z,17.02
2018-12-08T00:29:50.838Z,17.05
2018-12-08T00:30:50.674Z,17.05
2018-12-08T00:31:50.663Z,16.99
2018-12-08T00:32:50.694Z,17.02
2018-12-08T00:33:50.815Z,17.02
2018-12-08T00:34:50.820Z,16.99
2018-12-08T00:35:50.773Z,17.16
2018-12-08T00:36:50.741Z,17.05
2018-12-08T00:37:50.754Z,17.04
2018-12-08T00:38:50.765Z,17.09
2018-12-08T00:39:50.882Z,17.13
2018-12-08T00:40:50.903Z,17.04
2018-12-08T00:41:50.916Z,17.10
2018-12-08T00:42:50.812Z,17.17
2018-12-08T00:43:50.818Z,17.14
2018-12-08T00:44:50.953Z,17.23
2018-12-08T00:45:50.851Z,17.19
2018-12-08T00:46:50.863Z,17.22
2018-12-08T00:47:50.992Z,17.16
2018-12-08T00:48:50.888Z,17.22
2018-12-08T00:49:51.093Z,17.30
2018-12-08T00:50:50.895Z,17.22
2018-12-08T00:51:51.048Z,17.39
2018-12-08T00:52:50.932Z,17.39
2018-12-08T00:53:50.954Z,17.42
2018-12-08T00:54:51.115Z,17.52
2018-12-08T00:55:50.993Z,17.49
2018-12-08T00:56:50.983Z,17.63
2018-12-08T00:57:51.005Z,17.60
2018-12-08T00:58:51.031Z,17.66
2018-12-08T00:59:51.113Z,17.73
2018-12-08T01:00:51.049Z,17.66
2018-12-08T01:01:51.055Z,17.69
2018-12-08T01:02:51.064Z,17.71
2018-12-08T01:03:51.076Z,17.68
2018-12-08T01:04:51.253Z,17.65
2018-12-08T01:05:51.234Z,17.76
2018-12-08T01:06:51.143Z,17.66
2018-12-08T01:07:51.132Z,17.82
2018-12-08T01:08:51.158Z,17.75
2018-12-08T01:09:51.321Z,17.78
2018-12-08T01:10:51.190Z,17.79
2018-12-08T01:11:51.179Z,17.86
2018-12-08T01:12:51.190Z,17.84
2018-12-08T01:13:51.203Z,17.75
2018-12-08T01:14:51.362Z,17.76
2018-12-08T01:15:51.239Z,17.82
2018-12-08T01:16:51.259Z,17.75
2018-12-08T01:17:51.268Z,17.73
2018-12-08T01:18:51.273Z,17.84
2018-12-08T01:19:51.509Z,17.76
2018-12-08T01:20:51.298Z,17.76
2018-12-08T01:21:51.330Z,17.76
2018-12-08T01:22:51.448Z,17.76
2018-12-08T01:23:51.354Z,17.78
2018-12-08T01:24:51.550Z,17.78
2018-12-08T01:25:51.379Z,17.72
2018-12-08T01:26:51.385Z,17.66
2018-12-08T01:27:51.410Z,17.60
2018-12-08T01:28:51.526Z,17.53
2018-12-08T01:29:51.467Z,17.57
2018-12-08T01:30:51.440Z,17.49
2018-12-08T01:31:51.437Z,17.52
2018-12-08T01:32:51.564Z,17.42
2018-12-08T01:33:51.491Z,17.47
2018-12-08T01:34:51.480Z,17.37
2018-12-08T01:35:51.624Z,17.41
2018-12-08T01:36:51.543Z,17.34
2018-12-08T01:37:51.653Z,17.32
2018-12-08T01:38:51.557Z,17.31
2018-12-08T01:39:51.549Z,17.35
2018-12-08T01:40:51.570Z,17.32
2018-12-08T01:41:51.701Z,17.19
2018-12-08T01:42:51.703Z,17.27
2018-12-08T01:43:51.609Z,17.27
2018-12-08T01:44:51.638Z,17.17
2018-12-08T01:45:51.666Z,17.19
2018-12-08T01:46:51.668Z,17.14
2018-12-08T01:47:51.753Z,17.16
2018-12-08T01:48:51.663Z,17.10
2018-12-08T01:49:51.725Z,17.16
2018-12-08T01:50:51.689Z,17.24
2018-12-08T01:51:51.718Z,17.14
2018-12-08T01:52:51.936Z,17.05
2018-12-08T01:53:51.736Z,17.07
2018-12-08T01:54:51.864Z,17.05
2018-12-08T01:55:51.877Z,17.10
2018-12-08T01:56:51.792Z,17.07
2018-12-08T01:57:51.889Z,17.12
2018-12-08T01:58:51.798Z,17.14
2018-12-08T01:59:51.826Z,17.13
2018-12-08T02:00:51.831Z,17.17
2018-12-08T02:01:51.837Z,17.12
2018-12-08T02:02:52.014Z,17.17
2018-12-08T02:03:52.889Z,17.16
2018-12-08T02:04:51.879Z,17.19
2018-12-08T02:05:51.901Z,17.19
2018-12-08T02:06:51.890Z,17.19
2018-12-08T02:07:52.003Z,17.19
2018-12-08T02:08:51.926Z,17.19
2018-12-08T02:09:52.010Z,17.16
2018-12-08T02:10:52.007Z,17.20
2018-12-08T02:11:51.964Z,17.14
2018-12-08T02:12:52.128Z,17.14
2018-12-08T02:13:52.102Z,17.17
2018-12-08T02:14:51.992Z,17.19
2018-12-08T02:15:52.127Z,17.13
2018-12-08T02:16:52.011Z,17.20
2018-12-08T02:17:52.179Z,17.22
2018-12-08T02:18:52.050Z,17.09
2018-12-08T02:19:52.050Z,17.05
2018-12-08T02:20:52.069Z,17.04
2018-12-08T02:21:52.077Z,17.02
2018-12-08T02:22:52.182Z,16.99
2018-12-08T02:23:52.093Z,17.09
2018-12-08T02:24:52.126Z,16.92
2018-12-08T02:25:52.133Z,16.89
2018-12-08T02:26:52.133Z,16.91
2018-12-08T02:27:52.257Z,16.91
2018-12-08T02:28:52.165Z,16.77
2018-12-08T02:29:52.174Z,16.82
2018-12-08T02:30:52.196Z,16.80
2018-12-08T02:31:52.215Z,16.68
2018-12-08T02:32:52.355Z,16.73
2018-12-08T02:33:52.226Z,16.66
2018-12-08T02:34:52.362Z,16.68
2018-12-08T02:35:52.374Z,16.62
2018-12-08T02:36:52.261Z,16.64
2018-12-08T02:37:52.368Z,16.68
2018-12-08T02:38:52.294Z,16.61
2018-12-08T02:39:52.297Z,16.62
2018-12-08T02:40:52.365Z,16.57
2018-12-08T02:41:52.340Z,16.61
2018-12-08T02:42:52.440Z,16.57
2018-12-08T02:43:52.348Z,16.49
2018-12-08T02:44:52.543Z,16.59
2018-12-08T02:45:52.495Z,16.46
2018-12-08T02:46:52.397Z,16.54
2018-12-08T02:47:52.557Z,16.54
2018-12-08T02:48:52.419Z,16.57
2018-12-08T02:49:52.438Z,16.49
2018-12-08T02:50:52.444Z,16.54
2018-12-08T02:51:52.468Z,16.55
2018-12-08T02:52:52.555Z,16.54
2018-12-08T02:53:52.483Z,16.57
2018-12-08T02:54:52.488Z,16.50
2018-12-08T02:55:52.502Z,16.58
2018-12-08T02:56:52.628Z,16.58
2018-12-08T02:57:52.667Z,16.44
2018-12-08T02:58:52.527Z,16.50
2018-12-08T02:59:52.534Z,16.44
2018-12-08T03:00:52.553Z,16.44
2018-12-08T03:01:52.567Z,16.49
2018-12-08T03:02:52.680Z,16.41
2018-12-08T03:03:52.717Z,16.49
2018-12-08T03:04:52.610Z,16.37
2018-12-08T03:05:52.629Z,16.37
2018-12-08T03:06:52.631Z,16.29
2018-12-08T03:07:52.783Z,16.32
2018-12-08T03:08:52.663Z,16.32
2018-12-08T03:09:52.691Z,16.31
2018-12-08T03:10:52.682Z,16.34
2018-12-08T03:11:52.695Z,16.29
2018-12-08T03:12:52.805Z,16.29
2018-12-08T03:13:52.708Z,16.34
2018-12-08T03:14:52.849Z,16.25
2018-12-08T03:15:52.746Z,16.24
2018-12-08T03:16:52.749Z,16.21
2018-12-08T03:17:52.873Z,16.16
2018-12-08T03:18:52.896Z,16.12
2018-12-08T03:19:52.798Z,16.08
2018-12-08T03:20:52.791Z,16.21
2018-12-08T03:21:52.811Z,16.08
2018-12-08T03:22:52.994Z,16.03
2018-12-08T03:23:52.837Z,16.05
2018-12-08T03:24:52.848Z,15.96
2018-12-08T03:25:52.848Z,16.03
2018-12-08T03:26:52.864Z,16.06
2018-12-08T03:27:52.991Z,15.99
2018-12-08T03:28:52.889Z,16.00
2018-12-08T03:29:53.025Z,16.03
2018-12-08T03:30:52.930Z,16.03
2018-12-08T03:31:52.935Z,15.99
2018-12-08T03:32:53.043Z,16.02
2018-12-08T03:33:53.073Z,15.99
2018-12-08T03:34:52.968Z,16.02
2018-12-08T03:35:52.971Z,15.99
2018-12-08T03:36:52.975Z,16.06
2018-12-08T03:37:53.103Z,15.99
2018-12-08T03:38:53.133Z,16.00
2018-12-08T03:39:53.021Z,15.98
2018-12-08T03:40:53.031Z,16.00
2018-12-08T03:41:53.056Z,16.05
2018-12-08T03:42:53.280Z,16.05
2018-12-08T03:43:53.075Z,15.94
2018-12-08T03:44:53.205Z,16.00
2018-12-08T03:45:53.094Z,15.99
2018-12-08T03:46:53.118Z,16.02
2018-12-08T03:47:53.205Z,15.98
2018-12-08T03:48:53.172Z,15.98
2018-12-08T03:49:53.148Z,15.94
2018-12-08T03:50:53.159Z,15.96
2018-12-08T03:51:53.155Z,15.99
2018-12-08T03:52:53.287Z,16.05
2018-12-08T03:53:53.191Z,15.92
2018-12-08T03:54:53.199Z,15.94
2018-12-08T03:55:53.334Z,15.92
2018-12-08T03:56:53.342Z,15.96
2018-12-08T03:57:53.325Z,15.99
2018-12-08T03:58:53.369Z,15.98
2018-12-08T03:59:53.264Z,15.98
2018-12-08T04:00:53.281Z,15.99
2018-12-08T04:01:53.285Z,15.91
2018-12-08T04:02:53.435Z,15.91
2018-12-08T04:03:53.303Z,15.87
2018-12-08T04:04:53.319Z,15.99
2018-12-08T04:05:53.338Z,15.92
2018-12-08T04:06:53.330Z,15.88
2018-12-08T04:07:53.545Z,15.92
2018-12-08T04:08:53.482Z,15.98
2018-12-08T04:09:53.373Z,15.90
2018-12-08T04:10:53.499Z,15.90
2018-12-08T04:11:53.521Z,15.80
2018-12-08T04:12:53.514Z,15.83
2018-12-08T04:13:53.419Z,15.84
2018-12-08T04:14:53.461Z,15.73
2018-12-08T04:15:53.457Z,15.80
2018-12-08T04:16:53.603Z,15.75
2018-12-08T04:17:53.573Z,15.69
2018-12-08T04:18:53.605Z,15.75
2018-12-08T04:19:53.615Z,15.63
2018-12-08T04:20:53.509Z,15.67
2018-12-08T04:21:53.637Z,15.69
2018-12-08T04:22:53.625Z,15.66
2018-12-08T04:23:53.555Z,15.65
2018-12-08T04:24:53.564Z,15.65
2018-12-08T04:25:53.578Z,15.59
2018-12-08T04:26:53.588Z,15.65
2018-12-08T04:27:53.806Z,15.57
2018-12-08T04:28:53.615Z,15.60
2018-12-08T04:29:53.630Z,15.65
2018-12-08T04:30:53.620Z,15.63
2018-12-08T04:31:53.643Z,15.60
2018-12-08T04:32:53.745Z,15.55
2018-12-08T04:33:53.819Z,15.66
2018-12-08T04:34:53.669Z,15.59
2018-12-08T04:35:54.748Z,15.63
2018-12-08T04:36:53.682Z,15.55
2018-12-08T04:37:53.806Z,15.59
2018-12-08T04:38:53.702Z,15.50
2018-12-08T04:39:53.723Z,15.52
2018-12-08T04:40:53.729Z,15.63
2018-12-08T04:41:53.745Z,15.63
2018-12-08T04:42:53.983Z,15.51
2018-12-08T04:43:53.776Z,15.51
2018-12-08T04:44:53.784Z,15.52
2018-12-08T04:45:53.797Z,15.51
2018-12-08T04:46:53.794Z,15.48
2018-12-08T04:47:53.919Z,15.47
2018-12-08T04:48:53.847Z,15.51
2018-12-08T04:49:53.911Z,15.52
2018-12-08T04:50:53.873Z,15.51
2018-12-08T04:51:53.868Z,15.41
2018-12-08T04:52:53.996Z,15.51
2018-12-08T04:53:53.892Z,15.44
2018-12-08T04:54:53.895Z,15.44
2018-12-08T04:55:54.029Z,15.44
2018-12-08T04:56:53.911Z,15.43
2018-12-08T04:57:54.035Z,15.04
2018-12-08T04:58:53.954Z,14.87
2018-12-08T04:59:53.950Z,14.66
2018-12-08T05:00:53.986Z,14.55
2018-12-08T05:01:53.998Z,14.49
2018-12-08T05:02:54.078Z,14.26
2018-12-08T05:03:54.014Z,14.31
2018-12-08T05:04:54.008Z,14.25
2018-12-08T05:05:54.034Z,14.20
2018-12-08T05:06:54.030Z,14.28
2018-12-08T05:07:54.242Z,14.16
2018-12-08T05:08:54.062Z,14.15
2018-12-08T05:09:54.064Z,14.12
2018-12-08T05:10:54.094Z,14.07
2018-12-08T05:11:54.212Z,14.15
2018-12-08T05:12:54.188Z,14.11
2018-12-08T05:13:54.149Z,14.00
2018-12-08T05:14:54.168Z,14.03
2018-12-08T05:15:54.256Z,14.03
2018-12-08T05:16:54.156Z,13.94
2018-12-08T05:17:54.267Z,13.98
2018-12-08T05:18:54.203Z,13.97
2018-12-08T05:19:54.240Z,13.95
2018-12-08T05:20:54.178Z,13.91
2018-12-08T05:21:54.201Z,13.91
2018-12-08T05:22:54.315Z,13.91
2018-12-08T05:23:54.339Z,13.94
2018-12-08T05:24:54.351Z,13.95
2018-12-08T05:25:54.235Z,13.89
2018-12-08T05:26:54.240Z,13.91
2018-12-08T05:27:54.377Z,13.86
2018-12-08T05:28:54.383Z,13.91
2018-12-08T05:29:54.280Z,13.86
2018-12-08T05:30:54.310Z,13.85
2018-12-08T05:31:54.365Z,13.89
2018-12-08T05:32:54.435Z,13.86
2018-12-08T05:33:54.316Z,13.91
2018-12-08T05:34:54.457Z,13.75
2018-12-08T05:35:54.338Z,13.76
2018-12-08T05:36:54.370Z,13.73
2018-12-08T05:37:54.485Z,13.76
2018-12-08T05:38:54.383Z,13.80
2018-12-08T05:39:54.461Z,13.79
2018-12-08T05:40:54.394Z,13.73
2018-12-08T05:41:54.424Z,13.73
2018-12-08T05:42:54.533Z,13.75
2018-12-08T05:43:54.441Z,13.76
2018-12-08T05:44:54.565Z,13.76
2018-12-08T05:45:54.445Z,13.75
2018-12-08T05:46:54.585Z,13.79
2018-12-08T05:47:54.573Z,13.79
2018-12-08T05:48:54.607Z,13.76
2018-12-08T05:49:54.509Z,13.79
2018-12-08T05:50:54.519Z,13.82
2018-12-08T05:51:54.522Z,13.87
2018-12-08T05:52:54.720Z,13.76
2018-12-08T05:53:54.540Z,13.83
2018-12-08T05:54:54.564Z,13.86
2018-12-08T05:55:54.562Z,13.82
2018-12-08T05:56:54.577Z,13.94
2018-12-08T05:57:54.750Z,13.98
2018-12-08T05:58:54.595Z,13.97
2018-12-08T05:59:54.598Z,14.03
2018-12-08T06:00:54.735Z,14.08
2018-12-08T06:01:54.738Z,14.11
2018-12-08T06:02:54.739Z,14.16
2018-12-08T06:03:54.635Z,14.08
2018-12-08T06:04:54.643Z,14.07
2018-12-08T06:05:54.672Z,14.08
2018-12-08T06:06:54.672Z,14.15
2018-12-08T06:07:54.912Z,14.20
2018-12-08T06:08:54.722Z,14.26
2018-12-08T06:09:54.831Z,14.23
2018-12-08T06:10:54.715Z,14.31
2018-12-08T06:11:54.737Z,14.28
2018-12-08T06:12:54.964Z,14.25
2018-12-08T06:13:54.743Z,14.23
2018-12-08T06:14:54.749Z,14.43
2018-12-08T06:15:54.773Z,14.26
2018-12-08T06:16:54.788Z,14.30
2018-12-08T06:17:54.958Z,14.43
2018-12-08T06:18:54.798Z,14.44
2018-12-08T06:19:54.807Z,14.40
2018-12-08T06:20:54.815Z,14.45
2018-12-08T06:21:54.847Z,14.48
2018-12-08T06:22:55.123Z,14.41
2018-12-08T06:23:54.866Z,14.41
2018-12-08T06:24:54.886Z,14.40
2018-12-08T06:25:54.895Z,14.45
2018-12-08T06:26:54.884Z,14.52
2018-12-08T06:27:55.006Z,14.51
2018-12-08T06:28:54.929Z,14.51
2018-12-08T06:29:54.930Z,14.45
2018-12-08T06:30:54.935Z,14.55
2018-12-08T06:31:54.972Z,14.49
2018-12-08T06:32:55.168Z,14.45
2018-12-08T06:33:54.975Z,14.48
2018-12-08T06:34:54.980Z,14.51
2018-12-08T06:35:54.990Z,14.55
2018-12-08T06:36:54.989Z,14.55
2018-12-08T06:37:55.120Z,14.55
2018-12-08T06:38:55.034Z,14.58
2018-12-08T06:39:55.049Z,14.53
2018-12-08T06:40:55.046Z,14.56
2018-12-08T06:42:00.181Z,14.59
2018-12-08T06:42:55.225Z,14.49
2018-12-08T06:43:55.104Z,14.56
2018-12-08T06:44:55.102Z,14.59
2018-12-08T06:45:55.224Z,14.52
2018-12-08T06:46:55.117Z,14.53
2018-12-08T06:47:55.185Z,14.40
2018-12-08T06:48:55.226Z,14.41
2018-12-08T06:49:55.145Z,14.41
2018-12-08T06:50:55.277Z,14.37
2018-12-08T06:51:55.165Z,14.28
2018-12-08T06:52:55.177Z,14.38
2018-12-08T06:53:55.284Z,14.43
2018-12-08T06:54:55.198Z,14.36
2018-12-08T06:55:55.219Z,14.34
2018-12-08T06:56:55.229Z,14.28
2018-12-08T06:57:55.232Z,14.40
2018-12-08T06:58:55.392Z,14.37
2018-12-08T06:59:55.254Z,14.26
2018-12-08T07:00:55.269Z,14.37
2018-12-08T07:01:55.289Z,14.37
2018-12-08T07:02:55.285Z,14.31
2018-12-08T07:03:55.404Z,14.43
2018-12-08T07:04:55.313Z,14.34
2018-12-08T07:05:55.338Z,14.30
2018-12-08T07:06:55.329Z,14.40
2018-12-08T07:07:55.351Z,14.40
2018-12-08T07:08:55.496Z,14.41
2018-12-08T07:09:55.373Z,14.31
2018-12-08T07:10:55.493Z,14.28
2018-12-08T07:11:55.396Z,14.31
2018-12-08T07:12:55.407Z,14.30
2018-12-08T07:13:55.510Z,14.25
2018-12-08T07:14:55.421Z,14.31
2018-12-08T07:15:55.440Z,14.26
2018-12-08T07:16:55.443Z,14.23
2018-12-08T07:17:55.448Z,14.33
2018-12-08T07:18:55.566Z,14.25
2018-12-08T07:19:55.468Z,14.23
2018-12-08T07:20:55.491Z,14.31
2018-12-08T07:21:55.614Z,14.31
2018-12-08T07:22:55.519Z,14.19
2018-12-08T07:23:55.737Z,14.26
2018-12-08T07:24:55.521Z,14.26
2018-12-08T07:25:55.548Z,14.28
2018-12-08T07:26:55.590Z,14.20
2018-12-08T07:27:55.567Z,14.23
2018-12-08T07:28:55.667Z,14.22
2018-12-08T07:29:55.577Z,14.26
2018-12-08T07:30:55.587Z,14.23
2018-12-08T07:31:55.607Z,14.28
2018-12-08T07:32:55.604Z,14.22
2018-12-08T07:33:55.722Z,14.23
2018-12-08T07:34:55.649Z,14.20
2018-12-08T07:35:55.642Z,14.28
2018-12-08T07:36:55.658Z,14.31
2018-12-08T07:37:55.669Z,14.26
2018-12-08T07:38:55.886Z,14.34
2018-12-08T07:39:57.562Z,14.34
2018-12-08T07:40:55.710Z,14.40
2018-12-08T07:41:55.708Z,14.38
2018-12-08T07:42:55.731Z,14.38
2018-12-08T07:43:56.002Z,14.44
2018-12-08T07:44:55.739Z,14.41
2018-12-08T07:45:55.753Z,14.51
2018-12-08T07:46:55.754Z,14.53
2018-12-08T07:47:55.784Z,14.52
2018-12-08T07:48:55.898Z,14.58
2018-12-08T07:49:55.802Z,14.59
2018-12-08T07:50:55.929Z,14.55
2018-12-08T07:51:55.822Z,14.59
2018-12-08T07:52:55.953Z,14.59
2018-12-08T07:53:55.930Z,14.55
2018-12-08T07:54:55.865Z,14.51
2018-12-08T07:55:55.954Z,14.61
2018-12-08T07:56:55.871Z,14.59
2018-12-08T07:57:55.880Z,14.53
2018-12-08T07:58:56.009Z,14.55
2018-12-08T07:59:55.906Z,14.37
2018-12-08T08:00:55.926Z,14.44
2018-12-08T08:01:55.970Z,14.40
2018-12-08T08:02:55.984Z,14.31
2018-12-08T08:03:56.060Z,14.26
2018-12-08T08:04:55.957Z,14.18
2018-12-08T08:05:56.029Z,14.00
2018-12-08T08:06:56.000Z,13.80
2018-12-08T08:07:55.993Z,13.76
2018-12-08T08:08:56.009Z,13.61
2018-12-08T08:09:56.122Z,13.60
2018-12-08T08:10:56.029Z,13.62
2018-12-08T08:11:56.034Z,13.60
2018-12-08T08:12:56.064Z,13.50
2018-12-08T08:13:56.061Z,13.55
2018-12-08T08:14:56.170Z,13.57
2018-12-08T08:15:56.078Z,13.47
2018-12-08T08:16:56.108Z,13.55
2018-12-08T08:17:56.219Z,13.43
2018-12-08T08:18:56.133Z,13.49
2018-12-08T08:19:56.116Z,13.45
2018-12-08T08:20:56.239Z,13.46
2018-12-08T08:21:56.151Z,13.40
2018-12-08T08:22:56.158Z,13.46
2018-12-08T08:23:56.214Z,13.45
2018-12-08T08:24:56.176Z,13.40
2018-12-08T08:25:56.279Z,13.43
2018-12-08T08:26:56.189Z,13.40
2018-12-08T08:27:56.201Z,13.39
2018-12-08T08:28:56.218Z,13.46
2018-12-08T08:29:56.249Z,13.42
2018-12-08T08:30:56.343Z,13.46
2018-12-08T08:31:56.257Z,13.45
2018-12-08T08:32:56.265Z,13.54
2018-12-08T08:33:56.268Z,13.57
2018-12-08T08:34:56.272Z,13.54
2018-12-08T08:35:56.349Z,13.52
2018-12-08T08:36:56.300Z,13.58
2018-12-08T08:37:56.304Z,13.60
2018-12-08T08:38:56.315Z,13.65
2018-12-08T08:39:56.331Z,13.70
2018-12-08T08:40:56.442Z,13.76
2018-12-08T08:41:56.355Z,13.80
2018-12-08T08:42:56.364Z,13.82
2018-12-08T08:43:56.359Z,13.87
2018-12-08T08:44:56.393Z,13.83
2018-12-08T08:45:56.482Z,13.87
2018-12-08T08:46:56.397Z,13.83
2018-12-08T08:47:56.427Z,13.86
2018-12-08T08:48:56.424Z,13.86
2018-12-08T08:49:56.430Z,13.86
2018-12-08T08:50:56.552Z,13.97
2018-12-08T08:51:56.459Z,13.95
2018-12-08T08:52:56.454Z,14.05
2018-12-08T08:53:56.475Z,14.08
2018-12-08T08:54:56.607Z,14.18
2018-12-08T08:55:56.598Z,14.23
2018-12-08T08:56:56.506Z,14.15
2018-12-08T08:57:56.534Z,14.23
2018-12-08T08:58:56.550Z,14.34
2018-12-08T08:59:56.555Z,14.28
2018-12-08T09:00:56.666Z,14.41
2018-12-08T09:01:56.560Z,14.40
2018-12-08T09:02:56.583Z,14.43
2018-12-08T09:03:56.585Z,14.52
2018-12-08T09:04:56.592Z,14.51
2018-12-08T09:05:56.755Z,14.52
2018-12-08T09:06:56.743Z,14.61
2018-12-08T09:07:56.631Z,14.61
2018-12-08T09:08:56.652Z,14.62
2018-12-08T09:09:56.665Z,14.78
2018-12-08T09:10:56.823Z,14.81
2018-12-08T09:11:56.675Z,14.79
2018-12-08T09:12:56.732Z,14.77
2018-12-08T09:13:56.720Z,14.93
2018-12-08T09:14:56.721Z,14.89
2018-12-08T09:15:56.852Z,14.92
2018-12-08T09:16:56.856Z,14.93
2018-12-08T09:17:56.751Z,14.89
2018-12-08T09:18:56.748Z,14.90
2018-12-08T09:19:56.769Z,14.93
2018-12-08T09:20:56.881Z,14.97
2018-12-08T09:21:57.556Z,14.93
2018-12-08T09:22:56.822Z,14.92
2018-12-08T09:23:56.825Z,14.92
2018-12-08T09:24:56.826Z,14.94
2018-12-08T09:25:56.932Z,15.00
2018-12-08T09:26:56.865Z,15.02
2018-12-08T09:27:56.881Z,15.18
2018-12-08T09:28:56.886Z,15.32
2018-12-08T09:29:57.015Z,15.27
2018-12-08T09:30:57.009Z,15.36
2018-12-08T09:31:56.903Z,15.36
2018-12-08T09:32:57.045Z,15.43
2018-12-08T09:33:56.949Z,15.35
2018-12-08T09:34:57.015Z,15.32
2018-12-08T09:35:57.054Z,15.32
2018-12-08T09:36:56.979Z,15.32
2018-12-08T09:37:56.983Z,15.23
2018-12-08T09:38:57.001Z,15.33
2018-12-08T09:39:57.186Z,15.22
2018-12-08T09:40:57.168Z,15.05
2018-12-08T09:41:57.028Z,15.07
2018-12-08T09:42:57.046Z,14.97
2018-12-08T09:43:57.055Z,14.96
2018-12-08T09:44:57.063Z,15.00
2018-12-08T09:45:57.300Z,14.93
2018-12-08T09:46:57.087Z,14.93
2018-12-08T09:47:57.111Z,15.04
2018-12-08T09:48:57.122Z,14.97
2018-12-08T09:49:57.124Z,14.97
2018-12-08T09:50:57.242Z,14.89
2018-12-08T09:51:57.273Z,15.00
2018-12-08T09:52:57.165Z,14.97
2018-12-08T09:53:57.179Z,14.92
2018-12-08T09:54:57.309Z,14.97
2018-12-08T09:55:57.313Z,14.96
2018-12-08T09:56:57.222Z,14.93
2018-12-08T09:57:57.217Z,15.02
2018-12-08T09:58:57.237Z,14.99
2018-12-08T09:59:57.250Z,15.08
2018-12-08T10:00:57.359Z,15.04
2018-12-08T10:01:57.277Z,15.05
2018-12-08T10:02:57.277Z,15.32
2018-12-08T10:03:57.342Z,15.62
2018-12-08T10:04:57.322Z,16.00
2018-12-08T10:05:57.411Z,16.47
2018-12-08T10:06:57.338Z,16.97
2018-12-08T10:07:57.338Z,17.32
2018-12-08T10:08:57.350Z,17.44
2018-12-08T10:09:57.376Z,17.56
2018-12-08T10:10:57.538Z,18.08
2018-12-08T10:11:57.453Z,18.48
2018-12-08T10:12:57.412Z,18.79
2018-12-08T10:13:57.444Z,18.92
2018-12-08T10:14:57.474Z,19.19
2018-12-08T10:15:57.564Z,19.22
2018-12-08T10:16:57.456Z,19.29
2018-12-08T10:17:57.479Z,19.45
2018-12-08T10:18:57.504Z,19.57
2018-12-08T10:19:57.525Z,19.63
2018-12-08T10:20:57.665Z,19.75
2018-12-08T10:21:57.536Z,19.75
2018-12-08T10:22:57.547Z,20.00
2018-12-08T10:23:57.561Z,20.46
2018-12-08T10:24:57.582Z,20.77
2018-12-08T10:25:57.702Z,21.01
2018-12-08T10:26:57.616Z,20.82
2018-12-08T10:27:57.625Z,20.66
2018-12-08T10:28:57.644Z,20.66
2018-12-08T10:29:57.707Z,20.52
2018-12-08T10:31:01.257Z,20.34
2018-12-08T10:31:57.739Z,20.29
2018-12-08T10:32:57.714Z,19.96
2018-12-08T10:33:57.849Z,19.62
2018-12-08T10:34:57.848Z,19.27
2018-12-08T10:35:57.860Z,19.05
2018-12-08T10:36:57.785Z,18.92
2018-12-08T10:37:57.787Z,18.82
2018-12-08T10:38:57.822Z,18.78
2018-12-08T10:39:57.834Z,18.71
2018-12-08T10:40:57.973Z,18.63
2018-12-08T10:41:57.867Z,18.60
2018-12-08T10:42:57.894Z,18.79
2018-12-08T10:43:57.899Z,18.67
2018-12-08T10:44:57.923Z,18.74
2018-12-08T10:45:58.044Z,18.67
2018-12-08T10:46:57.935Z,18.71
2018-12-08T10:47:57.969Z,18.53
2018-12-08T10:48:58.092Z,18.58
2018-12-08T10:49:57.990Z,18.49
2018-12-08T10:50:58.100Z,18.53
2018-12-08T10:51:58.017Z,18.49
2018-12-08T10:52:58.082Z,18.48
2018-12-08T10:53:58.089Z,18.61
2018-12-08T10:54:58.093Z,18.61
2018-12-08T10:55:58.191Z,18.67
2018-12-08T10:56:58.147Z,18.64
2018-12-08T10:57:58.099Z,18.68
2018-12-08T10:58:58.143Z,18.73
2018-12-08T10:59:58.147Z,18.78
2018-12-08T11:00:58.261Z,18.78
2018-12-08T11:01:58.165Z,18.74
2018-12-08T11:02:58.184Z,18.61
2018-12-08T11:03:58.213Z,18.46
2018-12-08T11:04:58.208Z,18.28
2018-12-08T11:05:58.227Z,18.13
2018-12-08T11:06:58.352Z,18.06
2018-12-08T11:07:58.383Z,17.98
2018-12-08T11:08:58.324Z,17.94
2018-12-08T11:09:58.286Z,17.82
2018-12-08T11:10:58.323Z,18.03
2018-12-08T11:11:58.433Z,17.82
2018-12-08T11:12:58.459Z,17.88
2018-12-08T11:13:58.354Z,18.02
2018-12-08T11:15:00.842Z,17.97
2018-12-08T11:15:58.401Z,17.84
2018-12-08T11:16:58.559Z,18.05
2018-12-08T11:17:58.400Z,18.05
2018-12-08T11:18:58.434Z,18.03
2018-12-08T11:19:58.562Z,18.23
2018-12-08T11:20:58.459Z,18.27
2018-12-08T11:21:58.572Z,18.26
2018-12-08T11:22:58.605Z,18.16
2018-12-08T11:23:58.503Z,18.18
2018-12-08T11:24:58.509Z,18.15
2018-12-08T11:25:58.648Z,18.26
2018-12-08T11:26:58.750Z,18.08
2018-12-08T11:27:58.562Z,18.12
2018-12-08T11:28:58.693Z,18.21
2018-12-08T11:29:58.594Z,18.24
2018-12-08T11:30:58.614Z,18.13
2018-12-08T11:31:58.761Z,18.12
2018-12-08T11:32:58.633Z,18.05
2018-12-08T11:33:58.632Z,17.82
2018-12-08T11:34:58.654Z,17.76
2018-12-08T11:35:58.801Z,17.79
2018-12-08T11:36:58.828Z,17.69
2018-12-08T11:37:58.709Z,17.63
2018-12-08T11:38:58.723Z,17.50
2018-12-08T11:39:58.852Z,17.49
2018-12-08T11:40:58.805Z,17.49
2018-12-08T11:41:58.858Z,17.37
2018-12-08T11:42:58.769Z,17.42
2018-12-08T11:43:58.782Z,17.32
2018-12-08T11:44:58.802Z,17.46
2018-12-08T11:45:58.800Z,17.41
2018-12-08T11:46:59.101Z,17.46
2018-12-08T11:47:58.896Z,17.49
2018-12-08T11:48:58.873Z,17.56
2018-12-08T11:49:58.992Z,17.68
2018-12-08T11:50:58.896Z,17.71
2018-12-08T11:51:59.027Z,17.73
2018-12-08T11:52:58.924Z,17.80
2018-12-08T11:53:58.923Z,17.79
2018-12-08T11:54:59.065Z,17.75
2018-12-08T11:55:58.977Z,17.75
2018-12-08T11:56:59.115Z,17.73
2018-12-08T11:57:58.986Z,17.79
2018-12-08T11:58:58.986Z,17.82
2018-12-08T11:59:59.013Z,17.82
2018-12-08T12:00:59.030Z,17.79
2018-12-08T12:01:59.195Z,17.79
2018-12-08T12:02:59.048Z,17.79
2018-12-08T12:03:59.064Z,18.00
2018-12-08T12:04:59.069Z,18.33
2018-12-08T12:05:59.092Z,18.74
2018-12-08T12:06:59.233Z,18.68
2018-12-08T12:07:59.214Z,18.73
2018-12-08T12:08:59.260Z,18.83
2018-12-08T12:09:59.151Z,19.20
2018-12-08T12:10:59.161Z,19.56
2018-12-08T12:11:59.192Z,20.26
2018-12-08T12:12:59.304Z,21.22
2018-12-08T12:13:59.335Z,22.33
2018-12-08T12:14:59.237Z,23.40
2018-12-08T12:15:59.246Z,23.39
2018-12-08T12:16:59.257Z,23.33
2018-12-08T12:17:59.326Z,23.26
2018-12-08T12:18:59.314Z,22.91
2018-12-08T12:19:59.306Z,22.62
2018-12-08T12:20:59.348Z,22.10
2018-12-08T12:21:59.352Z,21.84
2018-12-08T12:22:59.504Z,21.53
2018-12-08T12:23:59.373Z,21.33
2018-12-08T12:24:59.415Z,21.19
2018-12-08T12:25:59.430Z,21.10
2018-12-08T12:26:59.452Z,20.82
2018-12-08T12:27:59.607Z,20.77
2018-12-08T12:28:59.457Z,20.67
2018-12-08T12:29:59.606Z,20.73
2018-12-08T12:30:59.494Z,20.56
2018-12-08T12:31:59.534Z,20.40
2018-12-08T12:32:59.690Z,20.40
2018-12-08T12:33:59.550Z,20.40
2018-12-08T12:34:59.576Z,20.46
2018-12-08T12:35:59.669Z,20.39
2018-12-08T12:36:59.601Z,20.22
2018-12-08T12:37:59.721Z,20.26
2018-12-08T12:38:59.655Z,20.56
2018-12-08T12:39:59.651Z,21.08
2018-12-08T12:40:59.792Z,21.83
2018-12-08T12:41:59.687Z,22.58
2018-12-08T12:42:59.808Z,23.37
2018-12-08T12:43:59.741Z,24.26
2018-12-08T12:44:59.743Z,24.92
2018-12-08T12:45:59.755Z,25.24
2018-12-08T12:46:59.772Z,25.03
2018-12-08T12:47:59.949Z,24.88
2018-12-08T12:48:59.933Z,24.66
2018-12-08T12:49:59.838Z,24.43
2018-12-08T12:50:59.871Z,24.11
2018-12-08T12:51:59.969Z,23.82
2018-12-08T12:53:00.083Z,23.64